Lena — V2FR — position and weather

sailwx.info

Track history (hours):
 
Tides and Currents Weather Stations Pressure Air Temp Water Temp Dewpoint Dewpoint Depression Visibility Wind Speed Wind Dir Waves Ship Positions

Lena

Last reported at 2014-Aug-30 02:25 UTC. Time now 2014-Sep-02 02:14 UTC.
Position N 57°27' E 017°48'.

Length 152 m; draft 7.3 m.

Type: Cargo ship. MMSI: 304080808.

Date/timePositionNaut miles runAvg speedWind from/ knotsBaromVisibWave heightAir tempDewpointWater temp
2014-Aug-30 02:25N 57°27' E 017°48'1618.8
2014-Aug-30 01:33N 57°12' E 017°38'2119.2
2014-Aug-30 00:28N 56°52' E 017°23'1718.9
2014-Aug-29 23:33N 56°36' E 017°11'2218.6
2014-Aug-29 22:22N 56°15' E 016°57'1717.4
2014-Aug-29 21:22N 56°01' E 016°39'2318.4
2014-Aug-29 20:06N 55°49' E 016°04'1018.4
2014-Aug-29 19:33N 55°44' E 015°49'1818.2
2014-Aug-29 18:33N 55°36' E 015°20'1818.0
2014-Aug-29 17:33N 55°29' E 014°51'1818.1
2014-Aug-29 16:33N 55°16' E 014°29'1818.2
2014-Aug-29 15:33N 55°02' E 014°07'1817.7
2014-Aug-29 14:33N 54°56' E 013°38'1817.8
2014-Aug-29 13:33N 54°50' E 013°09'1817.6
2014-Aug-29 12:33N 54°43' E 012°41'1717.2
2014-Aug-29 11:33N 54°33' E 012°17'1515.2
2014-Aug-29 10:33N 54°24' E 011°56'5213.1
2014-Aug-29 06:33N 55°06' E 011°02'1615.5
2014-Aug-29 05:31N 55°22' E 011°02'2114.9
2014-Aug-29 04:08N 55°41' E 010°47'1016.7
2014-Aug-29 03:33N 55°51' E 010°50'2017.2
2014-Aug-29 02:24N 56°07' E 011°10'1517.8
2014-Aug-29 01:33N 56°20' E 011°25'1818.0
2014-Aug-29 00:33N 56°35' E 011°42'1717.1
2014-Aug-28 23:33N 56°52' E 011°48'1918.6
2014-Aug-28 22:33N 57°09' E 011°37'1918.6
2014-Aug-28 21:33N 57°27' E 011°25'1818.4
2014-Aug-28 20:33N 57°40' E 011°00'1817.9
2014-Aug-28 19:33N 57°49' E 010°32'2018.3
2014-Aug-28 18:27N 57°47' E 009°55'38117.9
2014-Aug-27 21:14N 55°11' W 000°34'1318.1
2014-Aug-27 20:30N 55°07' W 000°56'1716.6
2014-Aug-27 19:27N 55°01' W 001°24'3 0.4
2014-Aug-27 13:26N 55°02' W 001°21'1213.8
2014-Aug-27 12:32N 54°55' W 001°02'1414.1
2014-Aug-27 11:33N 54°47' W 000°43'7 6.7
2014-Aug-27 10:32N 54°42' W 000°35'1616.0
2014-Aug-27 09:34N 54°32' W 000°14'1616.0
2014-Aug-27 08:34N 54°22' E 000°08'1615.7
2014-Aug-27 07:34N 54°12' E 000°28'1915.1
2014-Aug-27 06:17N 53°60' E 000°54'1314.8
2014-Aug-27 05:25N 53°53' E 001°12'1414.8
2014-Aug-27 04:30N 53°43' E 001°28'7715.1
2014-Aug-26 23:23N 52°36' E 002°32'5413.1
2014-Aug-26 19:17N 51°42' E 002°29'1113.7
2014-Aug-26 18:29N 51°33' E 002°18'1414.1
2014-Aug-26 17:28N 51°21' E 002°07'1213.5
2014-Aug-26 16:33N 51°10' E 001°56'1815.3
2014-Aug-26 15:23N 50°59' E 001°34'3415.9
2014-Aug-26 13:13N 50°32' E 001°00'1015.7
2014-Aug-26 12:33N 50°29' E 000°45'  
2014-Aug-23 23:28N 36°25' W 007°52'1617.5
2014-Aug-23 22:33N 36°20' W 007°33'1817.7
2014-Aug-23 21:33N 36°14' W 007°12'252 9.3
2014-Aug-22 18:29N 36°08' W 002°01'1516.2
2014-Aug-22 17:33N 36°07' W 001°42'2016.7
2014-Aug-22 16:22N 36°06' W 001°17'1516.8
2014-Aug-22 15:30N 36°06' W 000°59'1717.3
2014-Aug-22 14:31N 36°05' W 000°38'1716.2
2014-Aug-22 13:30N 36°00' W 000°19'9 0.4
2014-Aug-21 16:30N 35°51' W 000°18'3310.8
2014-Aug-21 13:25N 36°14' E 000°12'1916.2
2014-Aug-21 12:16N 36°25' E 000°31'1715.6
2014-Aug-21 11:11N 36°35' E 000°48'8017.0
2014-Aug-21 06:29N 36°54' E 002°25'6318.6
2014-Aug-21 03:06N 37°03' E 003°42'23218.5
2014-Aug-20 14:33N 37°20' E 008°33'5517.7
2014-Aug-20 11:28N 37°35' E 009°39'5717.2
2014-Aug-20 08:09N 37°35' E 010°51'9516.9
2014-Aug-20 02:33N 37°03' E 012°44'  
Track history (hours):
 
Tides and Currents Weather Stations Pressure Air Temp Water Temp Dewpoint Dewpoint Depression Visibility Wind Speed Wind Dir Waves Ship Positions

Lena

Last reported at 2014-Aug-30 02:25 UTC. Time now 2014-Sep-02 02:14 UTC.
Position N 57°27' E 017°48'.

Length 152 m; draft 7.3 m.

Type: Cargo ship. MMSI: 304080808.

Date/timePositionNaut miles runAvg speedWind from/ knotsBaromVisibWave heightAir tempDewpointWater temp
2014-Aug-30 02:25N 57°27' E 017°48'1618.8
2014-Aug-30 01:33N 57°12' E 017°38'2119.2
2014-Aug-30 00:28N 56°52' E 017°23'1718.9
2014-Aug-29 23:33N 56°36' E 017°11'2218.6
2014-Aug-29 22:22N 56°15' E 016°57'1717.4
2014-Aug-29 21:22N 56°01' E 016°39'2318.4
2014-Aug-29 20:06N 55°49' E 016°04'1018.4
2014-Aug-29 19:33N 55°44' E 015°49'1818.2
2014-Aug-29 18:33N 55°36' E 015°20'1818.0
2014-Aug-29 17:33N 55°29' E 014°51'1818.1
2014-Aug-29 16:33N 55°16' E 014°29'1818.2
2014-Aug-29 15:33N 55°02' E 014°07'1817.7
2014-Aug-29 14:33N 54°56' E 013°38'1817.8
2014-Aug-29 13:33N 54°50' E 013°09'1817.6
2014-Aug-29 12:33N 54°43' E 012°41'1717.2
2014-Aug-29 11:33N 54°33' E 012°17'1515.2
2014-Aug-29 10:33N 54°24' E 011°56'5213.1
2014-Aug-29 06:33N 55°06' E 011°02'1615.5
2014-Aug-29 05:31N 55°22' E 011°02'2114.9
2014-Aug-29 04:08N 55°41' E 010°47'1016.7
2014-Aug-29 03:33N 55°51' E 010°50'2017.2
2014-Aug-29 02:24N 56°07' E 011°10'1517.8
2014-Aug-29 01:33N 56°20' E 011°25'1818.0
2014-Aug-29 00:33N 56°35' E 011°42'1717.1
2014-Aug-28 23:33N 56°52' E 011°48'1918.6
2014-Aug-28 22:33N 57°09' E 011°37'1918.6
2014-Aug-28 21:33N 57°27' E 011°25'1818.4
2014-Aug-28 20:33N 57°40' E 011°00'1817.9
2014-Aug-28 19:33N 57°49' E 010°32'2018.3
2014-Aug-28 18:27N 57°47' E 009°55'38117.9
2014-Aug-27 21:14N 55°11' W 000°34'1318.1
2014-Aug-27 20:30N 55°07' W 000°56'1716.6
2014-Aug-27 19:27N 55°01' W 001°24'3 0.4
2014-Aug-27 13:26N 55°02' W 001°21'1213.8
2014-Aug-27 12:32N 54°55' W 001°02'1414.1
2014-Aug-27 11:33N 54°47' W 000°43'7 6.7
2014-Aug-27 10:32N 54°42' W 000°35'1616.0
2014-Aug-27 09:34N 54°32' W 000°14'1616.0
2014-Aug-27 08:34N 54°22' E 000°08'1615.7
2014-Aug-27 07:34N 54°12' E 000°28'1915.1
2014-Aug-27 06:17N 53°60' E 000°54'1314.8
2014-Aug-27 05:25N 53°53' E 001°12'1414.8
2014-Aug-27 04:30N 53°43' E 001°28'7715.1
2014-Aug-26 23:23N 52°36' E 002°32'5413.1
2014-Aug-26 19:17N 51°42' E 002°29'1113.7
2014-Aug-26 18:29N 51°33' E 002°18'1414.1
2014-Aug-26 17:28N 51°21' E 002°07'1213.5
2014-Aug-26 16:33N 51°10' E 001°56'1815.3
2014-Aug-26 15:23N 50°59' E 001°34'3415.9
2014-Aug-26 13:13N 50°32' E 001°00'1015.7
2014-Aug-26 12:33N 50°29' E 000°45'  
2014-Aug-23 23:28N 36°25' W 007°52'1617.5
2014-Aug-23 22:33N 36°20' W 007°33'1817.7
2014-Aug-23 21:33N 36°14' W 007°12'252 9.3
2014-Aug-22 18:29N 36°08' W 002°01'1516.2
2014-Aug-22 17:33N 36°07' W 001°42'2016.7
2014-Aug-22 16:22N 36°06' W 001°17'1516.8
2014-Aug-22 15:30N 36°06' W 000°59'1717.3
2014-Aug-22 14:31N 36°05' W 000°38'1716.2
2014-Aug-22 13:30N 36°00' W 000°19'9 0.4
2014-Aug-21 16:30N 35°51' W 000°18'3310.8
2014-Aug-21 13:25N 36°14' E 000°12'1916.2
2014-Aug-21 12:16N 36°25' E 000°31'1715.6
2014-Aug-21 11:11N 36°35' E 000°48'8017.0
2014-Aug-21 06:29N 36°54' E 002°25'6318.6
2014-Aug-21 03:06N 37°03' E 003°42'23218.5
2014-Aug-20 14:33N 37°20' E 008°33'5517.7
2014-Aug-20 11:28N 37°35' E 009°39'5717.2
2014-Aug-20 08:09N 37°35' E 010°51'9516.9
2014-Aug-20 02:33N 37°03' E 012°44'  

Dump ship's entire track history